createdAt,value
2018-05-06T00:02:11.911Z,86.40
2018-05-06T00:04:39.423Z,86.90
2018-05-06T00:07:07.719Z,88.50
2018-05-06T00:09:35.310Z,88.50
2018-05-06T00:12:02.864Z,88.50
2018-05-06T00:14:30.475Z,87.40
2018-05-06T00:16:57.991Z,88.90
2018-05-06T00:19:25.557Z,87.70
2018-05-06T00:21:53.051Z,88.70
2018-05-06T00:24:20.563Z,90.00
2018-05-06T00:26:48.093Z,89.50
2018-05-06T00:29:15.622Z,90.30
2018-05-06T00:31:43.889Z,89.50
2018-05-06T00:34:12.162Z,90.20
2018-05-06T00:36:39.774Z,90.20
2018-05-06T00:39:07.289Z,90.10
2018-05-06T00:41:34.834Z,90.50
2018-05-06T00:44:02.372Z,90.40
2018-05-06T00:46:29.955Z,90.30
2018-05-06T00:48:57.415Z,90.40
2018-05-06T00:51:24.952Z,90.30
2018-05-06T00:53:52.469Z,90.70
2018-05-06T00:56:19.991Z,90.30
2018-05-06T00:58:47.527Z,90.60
2018-05-06T01:01:15.825Z,90.30
2018-05-06T01:03:43.362Z,90.30
2018-05-06T01:06:10.897Z,90.90
2018-05-06T01:08:38.457Z,90.90
2018-05-06T01:11:05.981Z,90.80
2018-05-06T01:13:33.543Z,90.60
2018-05-06T01:16:01.040Z,90.70
2018-05-06T01:18:28.553Z,91.30
2018-05-06T01:20:56.099Z,91.30
2018-05-06T01:23:23.598Z,91.20
2018-05-06T01:25:51.881Z,91.00
2018-05-06T01:28:19.410Z,91.00
2018-05-06T01:30:46.902Z,91.30
2018-05-06T01:35:49.101Z,90.70
2018-05-06T01:38:16.647Z,91.30
2018-05-06T01:40:44.922Z,91.30
2018-05-06T01:43:12.462Z,91.20
2018-05-06T01:45:40.002Z,90.80
2018-05-06T01:48:07.519Z,90.90
2018-05-06T01:50:35.064Z,91.30
2018-05-06T01:53:02.578Z,91.50
2018-05-06T01:55:30.086Z,91.10
2018-05-06T01:57:57.659Z,91.30
2018-05-06T02:00:25.220Z,91.10
2018-05-06T02:02:52.725Z,91.40
2018-05-06T02:05:20.268Z,91.60
2018-05-06T02:07:47.791Z,91.60
2018-05-06T02:10:15.301Z,91.40
2018-05-06T02:12:42.852Z,91.50
2018-05-06T02:15:10.373Z,91.60
2018-05-06T02:17:38.658Z,91.40
2018-05-06T02:20:06.187Z,91.40
2018-05-06T02:22:33.711Z,91.70
2018-05-06T02:25:01.257Z,91.60
2018-05-06T02:27:28.870Z,91.70
2018-05-06T02:29:56.391Z,92.00
2018-05-06T02:32:23.914Z,92.20
2018-05-06T02:34:51.488Z,92.00
2018-05-06T02:37:18.992Z,92.10
2018-05-06T02:39:46.508Z,92.40
2018-05-06T02:42:14.032Z,92.20
2018-05-06T02:44:41.667Z,92.30
2018-05-06T02:47:09.168Z,92.30
2018-05-06T02:49:37.472Z,92.80
2018-05-06T02:52:04.997Z,92.70
2018-05-06T02:54:32.542Z,92.30
2018-05-06T02:57:00.048Z,92.40
2018-05-06T02:59:27.565Z,92.80
2018-05-06T03:01:55.095Z,92.50
2018-05-06T03:04:22.611Z,92.80
2018-05-06T03:06:50.890Z,93.10
2018-05-06T03:09:18.414Z,93.00
2018-05-06T03:11:45.942Z,93.30
2018-05-06T03:14:13.450Z,93.00
2018-05-06T03:16:40.996Z,93.50
2018-05-06T03:19:08.511Z,93.00
2018-05-06T03:21:36.032Z,93.50
2018-05-06T03:24:03.592Z,93.50
2018-05-06T03:26:31.171Z,93.60
2018-05-06T03:28:58.679Z,93.80
2018-05-06T03:31:26.226Z,93.80
2018-05-06T03:33:53.732Z,93.90
2018-05-06T03:36:21.871Z,93.70
2018-05-06T03:38:49.411Z,93.80
2018-05-06T03:41:16.925Z,94.10
2018-05-06T03:43:44.422Z,94.60
2018-05-06T03:46:12.733Z,94.40
2018-05-06T03:48:40.254Z,94.40
2018-05-06T03:51:07.831Z,94.50
2018-05-06T03:53:35.415Z,94.80
2018-05-06T03:59:26.904Z,94.90
2018-05-06T04:04:55.953Z,95.00
2018-05-06T04:07:23.458Z,95.10
2018-05-06T04:09:50.995Z,95.50
2018-05-06T04:12:18.510Z,95.30
2018-05-06T04:14:46.047Z,95.30
2018-05-06T04:17:13.552Z,95.30
2018-05-06T04:19:41.154Z,95.50
2018-05-06T04:22:08.689Z,95.50
2018-05-06T04:24:36.227Z,95.40
2018-05-06T04:27:04.493Z,95.70
2018-05-06T04:29:32.029Z,95.70
2018-05-06T04:31:59.542Z,95.40
2018-05-06T04:34:27.052Z,95.50
2018-05-06T04:36:54.611Z,95.40
2018-05-06T04:39:22.173Z,95.80
2018-05-06T04:41:49.766Z,95.80
2018-05-06T04:44:17.391Z,95.60
2018-05-06T04:46:44.849Z,95.60
2018-05-06T04:49:12.358Z,95.70
2018-05-06T04:54:13.942Z,95.50
2018-05-06T04:56:41.479Z,95.50
2018-05-06T04:59:09.757Z,95.60
2018-05-06T05:01:38.022Z,95.70
2018-05-06T05:04:06.361Z,95.50
2018-05-06T05:06:33.878Z,95.50
2018-05-06T05:09:01.382Z,95.50
2018-05-06T05:11:28.912Z,95.60
2018-05-06T05:13:56.422Z,95.20
2018-05-06T05:16:23.954Z,95.20
2018-05-06T05:18:51.461Z,95.00
2018-05-06T05:21:18.971Z,95.30
2018-05-06T05:23:46.503Z,95.00
2018-05-06T05:26:14.047Z,95.00
2018-05-06T05:28:42.314Z,95.00
2018-05-06T05:31:09.862Z,94.90
2018-05-06T05:33:37.417Z,94.70
2018-05-06T05:36:05.036Z,94.60
2018-05-06T05:38:32.572Z,94.60
2018-05-06T05:41:00.855Z,94.80
2018-05-06T05:43:28.393Z,94.80
2018-05-06T05:45:55.901Z,94.40
2018-05-06T05:48:23.428Z,94.20
2018-05-06T05:50:50.967Z,94.00
2018-05-06T05:53:18.535Z,93.90
2018-05-06T05:55:46.052Z,94.00
2018-05-06T05:58:13.990Z,94.20
2018-05-06T06:00:41.534Z,93.70
2018-05-06T06:03:09.082Z,93.70
2018-05-06T06:05:36.628Z,93.80
2018-05-06T06:08:04.155Z,93.20
2018-05-06T06:10:31.683Z,93.00
2018-05-06T06:12:59.993Z,93.10
2018-05-06T06:15:27.524Z,93.10
2018-05-06T06:17:55.823Z,92.80
2018-05-06T06:20:23.378Z,92.60
2018-05-06T06:22:50.930Z,92.90
2018-05-06T06:25:18.474Z,92.50
2018-05-06T06:27:46.008Z,92.20
2018-05-06T06:30:13.539Z,91.60
2018-05-06T06:32:41.062Z,92.20
2018-05-06T06:35:08.978Z,91.20
2018-05-06T06:37:36.683Z,91.50
2018-05-06T06:40:04.231Z,91.20
2018-05-06T06:42:31.837Z,90.80
2018-05-06T06:44:59.387Z,91.10
2018-05-06T06:47:27.696Z,89.90
2018-05-06T06:49:55.270Z,89.90
2018-05-06T06:52:22.784Z,89.40
2018-05-06T06:54:51.057Z,87.80
2018-05-06T06:57:18.699Z,87.70
2018-05-06T06:59:46.262Z,88.60
2018-05-06T07:02:13.819Z,87.50
2018-05-06T07:04:41.353Z,87.40
2018-05-06T07:07:08.870Z,87.40
2018-05-06T07:09:36.434Z,86.30
2018-05-06T07:12:03.939Z,85.40
2018-05-06T07:14:31.454Z,84.80
2018-05-06T07:16:59.766Z,83.00
2018-05-06T07:19:27.273Z,83.00
2018-05-06T07:21:55.562Z,84.10
2018-05-06T07:24:23.139Z,84.00
2018-05-06T07:26:51.452Z,81.90
2018-05-06T07:29:18.959Z,81.70
2018-05-06T07:31:47.287Z,83.00
2018-05-06T07:34:14.795Z,83.00
2018-05-06T07:36:43.077Z,82.60
2018-05-06T07:39:10.623Z,82.60
2018-05-06T07:41:38.240Z,81.80
2018-05-06T07:44:05.705Z,82.10
2018-05-06T07:46:33.257Z,80.80
2018-05-06T07:49:01.689Z,80.90
2018-05-06T07:51:29.221Z,80.80
2018-05-06T07:53:56.756Z,79.60
2018-05-06T07:56:24.258Z,79.10
2018-05-06T07:58:51.845Z,79.80
2018-05-06T08:01:19.319Z,79.40
2018-05-06T08:03:47.654Z,77.70
2018-05-06T08:06:15.208Z,77.70
2018-05-06T08:08:42.759Z,78.10
2018-05-06T08:11:10.281Z,78.00
2018-05-06T08:13:37.797Z,75.80
2018-05-06T08:16:05.326Z,75.40
2018-05-06T08:18:32.881Z,74.90
2018-05-06T08:21:00.392Z,75.90
2018-05-06T08:23:27.929Z,77.00
2018-05-06T08:25:55.447Z,74.80
2018-05-06T08:28:23.874Z,75.60
2018-05-06T08:30:51.405Z,77.60
2018-05-06T08:33:18.995Z,74.40
2018-05-06T08:35:47.098Z,74.90
2018-05-06T08:38:15.396Z,73.30
2018-05-06T08:40:42.915Z,73.10
2018-05-06T08:43:10.468Z,72.40
2018-05-06T08:45:38.677Z,72.40
2018-05-06T08:48:06.190Z,71.90
2018-05-06T08:50:33.779Z,75.00
2018-05-06T08:53:02.262Z,71.00
2018-05-06T08:58:23.015Z,68.60
2018-05-06T09:00:50.566Z,68.60
2018-05-06T09:03:18.881Z,67.50
2018-05-06T09:05:46.407Z,67.40
2018-05-06T09:08:14.698Z,67.50
2018-05-06T09:10:42.217Z,67.50
2018-05-06T09:13:09.768Z,66.50
2018-05-06T09:15:37.278Z,66.40
2018-05-06T09:18:04.839Z,65.70
2018-05-06T09:20:32.357Z,67.20
2018-05-06T09:22:59.881Z,67.20
2018-05-06T09:25:27.465Z,66.30
2018-05-06T09:27:54.998Z,64.80
2018-05-06T09:30:22.517Z,66.10
2018-05-06T09:32:50.042Z,65.10
2018-05-06T09:35:17.582Z,63.30
2018-05-06T09:37:45.165Z,64.90
2018-05-06T09:40:12.660Z,61.80
2018-05-06T09:42:40.202Z,60.20
2018-05-06T09:45:07.740Z,63.90
2018-05-06T09:47:35.316Z,60.80
2018-05-06T09:50:02.826Z,59.30
2018-05-06T09:52:31.100Z,61.00
2018-05-06T09:54:59.403Z,58.00
2018-05-06T09:57:26.909Z,58.00
2018-05-06T09:59:54.431Z,56.00
2018-05-06T10:02:21.957Z,57.10
2018-05-06T10:04:50.252Z,58.10
2018-05-06T10:07:17.749Z,58.00
2018-05-06T10:09:45.318Z,57.10
2018-05-06T10:12:12.819Z,58.10
2018-05-06T10:14:40.396Z,56.20
2018-05-06T10:17:07.928Z,55.60
2018-05-06T10:19:36.217Z,57.80
2018-05-06T10:22:04.531Z,53.20
2018-05-06T10:24:32.051Z,53.10
2018-05-06T10:26:59.557Z,55.70
2018-05-06T10:29:27.111Z,54.80
2018-05-06T10:31:54.637Z,54.30
2018-05-06T10:34:22.156Z,54.20
2018-05-06T10:36:49.695Z,54.40
2018-05-06T10:39:17.224Z,53.90
2018-05-06T10:41:44.751Z,53.20
2018-05-06T10:44:12.482Z,53.50
2018-05-06T10:46:39.994Z,51.90
2018-05-06T10:49:08.898Z,50.80
2018-05-06T10:51:36.391Z,50.60
2018-05-06T10:54:03.901Z,49.70
2018-05-06T10:56:31.417Z,51.90
2018-05-06T10:58:58.966Z,52.30
2018-05-06T11:01:26.506Z,52.60
2018-05-06T11:03:54.781Z,49.50
2018-05-06T11:06:22.319Z,49.50
2018-05-06T11:08:50.622Z,49.90
2018-05-06T11:11:18.242Z,49.80
2018-05-06T11:13:45.801Z,51.10
2018-05-06T11:16:13.362Z,51.20
2018-05-06T11:18:40.870Z,48.10
2018-05-06T11:21:08.424Z,48.30
2018-05-06T11:23:35.979Z,50.20
2018-05-06T11:26:03.532Z,50.70
2018-05-06T11:28:31.858Z,49.80
2018-05-06T11:30:59.378Z,49.80
2018-05-06T11:33:27.705Z,48.80
2018-05-06T11:35:55.211Z,48.80
2018-05-06T11:38:23.525Z,47.60
2018-05-06T11:40:51.053Z,47.60
2018-05-06T11:43:18.613Z,48.30
2018-05-06T11:45:46.131Z,47.30
2018-05-06T11:48:13.662Z,48.20
2018-05-06T11:50:41.192Z,50.10
2018-05-06T11:53:09.481Z,48.50
2018-05-06T11:55:37.080Z,48.40
2018-05-06T11:58:04.594Z,48.00
2018-05-06T12:00:32.869Z,47.50
2018-05-06T12:03:00.460Z,47.40
2018-05-06T12:05:28.005Z,47.70
2018-05-06T12:07:55.552Z,46.10
2018-05-06T12:10:23.864Z,45.20
2018-05-06T12:12:51.379Z,45.20
2018-05-06T12:15:19.715Z,44.90
2018-05-06T12:17:47.241Z,45.50
2018-05-06T12:20:14.746Z,42.60
2018-05-06T12:22:42.303Z,42.80
2018-05-06T12:25:09.806Z,41.80
2018-05-06T12:27:37.340Z,40.60
2018-05-06T12:30:04.904Z,41.80
2018-05-06T12:32:32.435Z,43.30
2018-05-06T12:34:59.938Z,43.50
2018-05-06T12:37:28.260Z,44.00
2018-05-06T12:39:55.758Z,44.00
2018-05-06T12:42:23.299Z,45.80
2018-05-06T12:44:50.838Z,45.50
2018-05-06T12:47:19.139Z,42.70
2018-05-06T12:49:46.720Z,42.70
2018-05-06T12:52:14.276Z,41.50
2018-05-06T12:54:41.790Z,41.80
2018-05-06T12:57:09.297Z,40.70
2018-05-06T12:59:36.833Z,39.80
2018-05-06T13:02:04.395Z,41.20
2018-05-06T13:04:31.907Z,41.70
2018-05-06T13:06:59.451Z,38.00
2018-05-06T13:09:26.989Z,37.10
2018-05-06T13:11:54.494Z,38.60
2018-05-06T13:14:22.020Z,39.00
2018-05-06T13:16:49.546Z,40.50
2018-05-06T13:19:17.061Z,39.60
2018-05-06T13:21:44.595Z,39.30
2018-05-06T13:24:12.153Z,39.20
2018-05-06T13:26:39.717Z,37.00
2018-05-06T13:29:07.273Z,36.60
2018-05-06T13:31:34.795Z,37.30
2018-05-06T13:34:02.422Z,38.00
2018-05-06T13:36:29.938Z,37.20
2018-05-06T13:38:57.489Z,37.50
2018-05-06T13:41:25.056Z,38.10
2018-05-06T13:43:53.142Z,38.10
2018-05-06T13:46:20.604Z,35.10
2018-05-06T13:48:48.120Z,37.40
2018-05-06T13:51:16.430Z,36.80
2018-05-06T13:53:43.966Z,36.60
2018-05-06T13:56:11.515Z,36.20
2018-05-06T13:58:39.808Z,36.10
2018-05-06T14:01:07.307Z,36.10
2018-05-06T14:03:34.850Z,37.00
2018-05-06T14:06:02.378Z,37.00
2018-05-06T14:08:29.881Z,36.00
2018-05-06T14:10:58.208Z,35.20
2018-05-06T14:13:25.717Z,37.00
2018-05-06T14:15:53.303Z,36.40
2018-05-06T14:18:20.835Z,37.10
2018-05-06T14:20:48.410Z,34.10
2018-05-06T14:23:15.959Z,35.80
2018-05-06T14:25:43.477Z,37.40
2018-05-06T14:28:11.758Z,35.90
2018-05-06T14:30:40.078Z,35.60
2018-05-06T14:33:07.701Z,35.60
2018-05-06T14:35:35.209Z,37.40
2018-05-06T14:38:02.720Z,40.90
2018-05-06T14:40:30.276Z,37.20
2018-05-06T14:42:57.819Z,37.40
2018-05-06T14:45:25.330Z,38.00
2018-05-06T14:48:05.210Z,37.40
2018-05-06T14:50:32.716Z,37.70
2018-05-06T14:53:00.271Z,36.90
2018-05-06T14:55:28.574Z,37.80
2018-05-06T14:57:56.097Z,37.70
2018-05-06T15:00:24.394Z,37.80
2018-05-06T15:02:52.693Z,38.70
2018-05-06T15:05:20.203Z,38.70
2018-05-06T15:07:47.762Z,38.20
2018-05-06T15:10:15.343Z,37.80
2018-05-06T15:12:42.845Z,36.60
2018-05-06T15:15:10.440Z,37.20
2018-05-06T15:17:37.966Z,37.50
2018-05-06T15:20:05.482Z,36.20
2018-05-06T15:22:33.766Z,36.70
2018-05-06T15:25:01.816Z,36.70
2018-05-06T15:27:29.346Z,36.20
2018-05-06T15:29:56.874Z,36.00
2018-05-06T15:32:24.389Z,36.20
2018-05-06T15:34:52.204Z,34.60
2018-05-06T15:37:19.735Z,37.60
2018-05-06T15:39:47.627Z,38.40
2018-05-06T15:42:15.155Z,38.40
2018-05-06T15:44:42.675Z,38.20
2018-05-06T15:47:11.025Z,39.00
2018-05-06T15:49:38.878Z,39.00
2018-05-06T15:52:07.246Z,39.80
2018-05-06T15:54:35.826Z,40.50
2018-05-06T15:57:03.540Z,38.30
2018-05-06T15:59:31.051Z,37.00
2018-05-06T16:05:00.352Z,38.00
2018-05-06T16:07:27.925Z,38.80
2018-05-06T16:09:55.430Z,38.10
2018-05-06T16:12:22.944Z,39.00
2018-05-06T16:14:50.479Z,39.00
2018-05-06T16:17:17.977Z,39.40
2018-05-06T16:19:45.560Z,38.10
2018-05-06T16:22:13.862Z,38.90
2018-05-06T16:24:41.369Z,38.90
2018-05-06T16:27:08.886Z,38.90
2018-05-06T16:29:36.458Z,39.70
2018-05-06T16:32:03.975Z,38.30
2018-05-06T16:34:31.554Z,38.40
2018-05-06T16:36:59.062Z,37.80
2018-05-06T16:39:26.589Z,38.80
2018-05-06T16:41:54.171Z,38.40
2018-05-06T16:44:21.724Z,38.80
2018-05-06T16:46:49.236Z,37.60
2018-05-06T16:49:16.779Z,38.60
2018-05-06T16:51:44.326Z,39.20
2018-05-06T16:54:11.868Z,37.50
2018-05-06T16:56:39.409Z,37.40
2018-05-06T16:59:06.914Z,38.20
2018-05-06T17:01:34.442Z,38.30
2018-05-06T17:04:02.882Z,38.80
2018-05-06T17:06:31.169Z,39.00
2018-05-06T17:08:59.485Z,39.30
2018-05-06T17:11:27.058Z,39.30
2018-05-06T17:13:54.574Z,39.80
2018-05-06T17:16:22.892Z,39.70
2018-05-06T17:18:50.407Z,39.70
2018-05-06T17:21:17.921Z,39.90
2018-05-06T17:23:45.458Z,39.70
2018-05-06T17:26:12.977Z,39.60
2018-05-06T17:28:41.260Z,40.60
2018-05-06T17:31:08.799Z,40.60
2018-05-06T17:33:36.337Z,40.20
2018-05-06T17:36:04.613Z,41.20
2018-05-06T17:38:32.198Z,41.20
2018-05-06T17:40:59.714Z,40.70
2018-05-06T17:43:27.235Z,41.50
2018-05-06T17:45:55.551Z,42.10
2018-05-06T17:48:23.108Z,41.80
2018-05-06T17:50:50.630Z,42.00
2018-05-06T17:53:18.210Z,43.00
2018-05-06T17:55:45.821Z,43.30
2018-05-06T17:58:13.352Z,43.30
2018-05-06T18:00:40.983Z,44.00
2018-05-06T18:03:08.602Z,44.00
2018-05-06T18:05:36.126Z,44.90
2018-05-06T18:08:03.663Z,44.80
2018-05-06T18:10:31.714Z,45.70
2018-05-06T18:13:00.062Z,45.30
2018-05-06T18:15:27.612Z,45.30
2018-05-06T18:17:55.188Z,45.60
2018-05-06T18:20:23.126Z,46.10
2018-05-06T18:22:50.639Z,46.10
2018-05-06T18:25:18.164Z,46.40
2018-05-06T18:27:45.716Z,47.10
2018-05-06T18:30:13.443Z,47.30
2018-05-06T18:32:40.963Z,47.50
2018-05-06T18:35:08.512Z,48.20
2018-05-06T18:37:36.017Z,48.20
2018-05-06T18:40:03.549Z,48.60
2018-05-06T18:42:31.072Z,49.30
2018-05-06T18:44:58.622Z,50.00
2018-05-06T18:47:26.912Z,51.10
2018-05-06T18:49:54.496Z,51.00
2018-05-06T18:52:22.094Z,51.70
2018-05-06T18:54:49.594Z,53.50
2018-05-06T18:57:17.908Z,55.20
2018-05-06T18:59:45.459Z,55.70
2018-05-06T19:02:12.962Z,54.60
2018-05-06T19:04:40.519Z,55.60
2018-05-06T19:07:08.059Z,55.80
2018-05-06T19:09:35.603Z,56.80
2018-05-06T19:12:04.088Z,57.70
2018-05-06T19:14:31.636Z,57.60
2018-05-06T19:16:59.241Z,57.60
2018-05-06T19:19:27.463Z,58.50
2018-05-06T19:21:55.749Z,59.60
2018-05-06T19:24:23.294Z,59.50
2018-05-06T19:26:51.586Z,60.90
2018-05-06T19:29:19.109Z,60.90
2018-05-06T19:31:46.635Z,61.30
2018-05-06T19:34:14.155Z,61.70
2018-05-06T19:36:41.689Z,62.30
2018-05-06T19:39:09.209Z,63.50
2018-05-06T19:41:36.717Z,65.80
2018-05-06T19:44:04.306Z,66.60
2018-05-06T19:46:31.850Z,66.10
2018-05-06T19:48:59.410Z,68.10
2018-05-06T19:51:26.910Z,69.50
2018-05-06T19:53:54.439Z,70.50
2018-05-06T19:56:21.962Z,69.90
2018-05-06T19:58:50.994Z,71.00
2018-05-06T20:01:18.507Z,71.00
2018-05-06T20:03:46.081Z,71.60
2018-05-06T20:06:13.600Z,72.60
2018-05-06T20:08:41.179Z,73.20
2018-05-06T20:11:08.738Z,72.80
2018-05-06T20:13:36.897Z,75.00
2018-05-06T20:16:04.402Z,74.40
2018-05-06T20:18:32.053Z,74.60
2018-05-06T20:20:59.537Z,74.70
2018-05-06T20:23:27.083Z,74.80
2018-05-06T20:25:54.630Z,76.30
2018-05-06T20:28:22.203Z,77.30
2018-05-06T20:30:49.734Z,77.00
2018-05-06T20:33:17.629Z,77.30
2018-05-06T20:35:45.256Z,77.60
2018-05-06T20:38:13.716Z,79.10
2018-05-06T20:40:41.251Z,79.10
2018-05-06T20:43:09.536Z,79.10
2018-05-06T20:45:37.924Z,79.80
2018-05-06T20:48:05.483Z,79.80
2018-05-06T20:50:33.766Z,79.90
2018-05-06T20:53:01.288Z,79.80
2018-05-06T20:55:28.829Z,80.20
2018-05-06T20:57:56.363Z,80.50
2018-05-06T21:00:23.949Z,80.90
2018-05-06T21:02:51.473Z,81.00
2018-05-06T21:05:19.810Z,82.10
2018-05-06T21:07:47.388Z,82.10
2018-05-06T21:10:14.900Z,83.00
2018-05-06T21:12:42.401Z,83.00
2018-05-06T21:15:09.981Z,82.90
2018-05-06T21:17:38.608Z,83.60
2018-05-06T21:20:06.126Z,83.50
2018-05-06T21:22:34.428Z,84.00
2018-05-06T21:25:02.075Z,83.90
2018-05-06T21:27:29.662Z,83.90
2018-05-06T21:29:57.166Z,83.90
2018-05-06T21:32:24.697Z,84.40
2018-05-06T21:34:52.233Z,85.10
2018-05-06T21:37:19.762Z,84.60
2018-05-06T21:39:47.297Z,85.70
2018-05-06T21:42:14.815Z,85.80
2018-05-06T21:44:42.936Z,87.30
2018-05-06T21:47:10.494Z,87.00
2018-05-06T21:49:38.026Z,88.20
2018-05-06T21:52:05.562Z,88.50
2018-05-06T21:54:33.871Z,88.50
2018-05-06T21:57:01.461Z,88.40
2018-05-06T21:59:29.001Z,87.80
2018-05-06T22:01:56.530Z,88.90
2018-05-06T22:04:24.046Z,89.50
2018-05-06T22:06:51.578Z,88.90
2018-05-06T22:09:19.092Z,89.10
2018-05-06T22:11:46.604Z,89.20
2018-05-06T22:14:14.150Z,89.70
2018-05-06T22:16:41.732Z,89.70
2018-05-06T22:19:09.247Z,90.00
2018-05-06T22:21:36.798Z,90.40
2018-05-06T22:24:04.447Z,89.90
2018-05-06T22:26:31.977Z,90.50
2018-05-06T22:28:59.482Z,90.20
2018-05-06T22:31:27.015Z,90.70
2018-05-06T22:33:54.581Z,90.90
2018-05-06T22:36:22.090Z,90.80
2018-05-06T22:38:49.675Z,90.80
2018-05-06T22:41:17.158Z,90.80
2018-05-06T22:43:44.663Z,90.80
2018-05-06T22:46:12.199Z,91.20
2018-05-06T22:48:40.305Z,91.60
2018-05-06T22:51:07.815Z,91.50
2018-05-06T22:53:35.351Z,91.80
2018-05-06T22:56:02.865Z,92.00
2018-05-06T22:58:31.129Z,92.60
2018-05-06T23:00:58.673Z,92.60
2018-05-06T23:03:26.179Z,93.00
2018-05-06T23:05:54.470Z,92.90
2018-05-06T23:08:22.003Z,92.80
2018-05-06T23:10:49.507Z,93.00
2018-05-06T23:13:17.027Z,93.20
2018-05-06T23:15:44.568Z,93.20
2018-05-06T23:18:12.125Z,93.40
2018-05-06T23:20:40.488Z,93.80
2018-05-06T23:23:08.033Z,93.80
2018-05-06T23:25:35.563Z,93.90
2018-05-06T23:28:03.658Z,93.80
2018-05-06T23:30:31.148Z,94.00
2018-05-06T23:32:58.697Z,94.20
2018-05-06T23:35:26.190Z,94.20
2018-05-06T23:37:53.760Z,94.20
2018-05-06T23:40:21.326Z,94.40
2018-05-06T23:42:48.870Z,94.40
2018-05-06T23:45:17.145Z,94.60
2018-05-06T23:47:44.706Z,94.60
2018-05-06T23:50:12.982Z,94.60
2018-05-06T23:52:40.497Z,94.50
2018-05-06T23:55:08.140Z,94.50
2018-05-06T23:57:35.665Z,94.50
